sensor_id;sensor_type;location;lat;lon;timestamp;P1;P2;P0
55276;PMS5003;41136;51.478;-2.610;2023-04-25T00:02:01;14;14;
55276;PMS5003;41136;51.478;-2.610;2023-04-25T00:04:27;8;7;
55276;PMS5003;41136;51.478;-2.610;2023-04-25T00:06:52;16;12;
55276;PMS5003;41136;51.478;-2.610;2023-04-25T00:09:17;12;12;
55276;PMS5003;41136;51.478;-2.610;2023-04-25T00:11:43;16;13;
55276;PMS5003;41136;51.478;-2.610;2023-04-25T00:14:08;14;14;
55276;PMS5003;41136;51.478;-2.610;2023-04-25T00:16:33;17;15;
55276;PMS5003;41136;51.478;-2.610;2023-04-25T00:18:58;12;9;
55276;PMS5003;41136;51.478;-2.610;2023-04-25T00:21:23;12;10;
55276;PMS5003;41136;51.478;-2.610;2023-04-25T00:23:49;12;11;
55276;PMS5003;41136;51.478;-2.610;2023-04-25T00:26:14;10;9;
55276;PMS5003;41136;51.478;-2.610;2023-04-25T00:28:39;13;13;
55276;PMS5003;41136;51.478;-2.610;2023-04-25T00:31:04;11;11;
55276;PMS5003;41136;51.478;-2.610;2023-04-25T00:33:30;12;10;
55276;PMS5003;41136;51.478;-2.610;2023-04-25T00:35:55;11;11;
55276;PMS5003;41136;51.478;-2.610;2023-04-25T00:38:21;12;10;
55276;PMS5003;41136;51.478;-2.610;2023-04-25T00:40:46;14;13;
55276;PMS5003;41136;51.478;-2.610;2023-04-25T00:43:11;12;10;
55276;PMS5003;41136;51.478;-2.610;2023-04-25T00:45:37;15;12;
55276;PMS5003;41136;51.478;-2.610;2023-04-25T00:48:02;15;11;
55276;PMS5003;41136;51.478;-2.610;2023-04-25T00:50:27;14;11;
55276;PMS5003;41136;51.478;-2.610;2023-04-25T00:52:53;17;15;
55276;PMS5003;41136;51.478;-2.610;2023-04-25T00:55:18;18;16;
55276;PMS5003;41136;51.478;-2.610;2023-04-25T00:57:43;17;16;
55276;PMS5003;41136;51.478;-2.610;2023-04-25T01:00:10;19;18;
55276;PMS5003;41136;51.478;-2.610;2023-04-25T01:02:34;16;15;
55276;PMS5003;41136;51.478;-2.610;2023-04-25T01:05:00;16;14;
55276;PMS5003;41136;51.478;-2.610;2023-04-25T01:07:25;16;13;
55276;PMS5003;41136;51.478;-2.610;2023-04-25T01:09:51;19;19;
55276;PMS5003;41136;51.478;-2.610;2023-04-25T01:12:16;16;13;
55276;PMS5003;41136;51.478;-2.610;2023-04-25T01:14:42;14;14;
55276;PMS5003;41136;51.478;-2.610;2023-04-25T01:17:07;17;14;
55276;PMS5003;41136;51.478;-2.610;2023-04-25T01:19:32;15;13;
55276;PMS5003;41136;51.478;-2.610;2023-04-25T01:25:30;19;15;
55276;PMS5003;41136;51.478;-2.610;2023-04-25T01:27:56;12;12;
55276;PMS5003;41136;51.478;-2.610;2023-04-25T01:30:20;14;12;
55276;PMS5003;41136;51.478;-2.610;2023-04-25T01:32:46;20;17;
55276;PMS5003;41136;51.478;-2.610;2023-04-25T01:35:11;11;11;
55276;PMS5003;41136;51.478;-2.610;2023-04-25T01:37:37;13;13;
55276;PMS5003;41136;51.478;-2.610;2023-04-25T01:40:03;16;13;
55276;PMS5003;41136;51.478;-2.610;2023-04-25T01:42:28;15;14;
55276;PMS5003;41136;51.478;-2.610;2023-04-25T01:44:53;10;9;
55276;PMS5003;41136;51.478;-2.610;2023-04-25T01:47:18;15;11;
55276;PMS5003;41136;51.478;-2.610;2023-04-25T01:49:44;16;13;
55276;PMS5003;41136;51.478;-2.610;2023-04-25T01:52:09;14;11;
55276;PMS5003;41136;51.478;-2.610;2023-04-25T01:54:35;19;14;
55276;PMS5003;41136;51.478;-2.610;2023-04-25T01:57:00;15;14;
55276;PMS5003;41136;51.478;-2.610;2023-04-25T01:59:25;15;13;
55276;PMS5003;41136;51.478;-2.610;2023-04-25T02:01:51;15;15;
55276;PMS5003;41136;51.478;-2.610;2023-04-25T02:04:16;14;10;
55276;PMS5003;41136;51.478;-2.610;2023-04-25T02:06:41;18;12;
55276;PMS5003;41136;51.478;-2.610;2023-04-25T02:09:06;16;14;
55276;PMS5003;41136;51.478;-2.610;2023-04-25T02:11:31;13;13;
55276;PMS5003;41136;51.478;-2.610;2023-04-25T02:13:57;16;15;
55276;PMS5003;41136;51.478;-2.610;2023-04-25T02:16:22;14;12;
55276;PMS5003;41136;51.478;-2.610;2023-04-25T02:18:48;15;12;
55276;PMS5003;41136;51.478;-2.610;2023-04-25T02:21:14;20;15;
55276;PMS5003;41136;51.478;-2.610;2023-04-25T02:23:39;11;10;
55276;PMS5003;41136;51.478;-2.610;2023-04-25T02:26:05;14;11;
55276;PMS5003;41136;51.478;-2.610;2023-04-25T02:28:30;18;15;
55276;PMS5003;41136;51.478;-2.610;2023-04-25T02:30:55;15;14;
55276;PMS5003;41136;51.478;-2.610;2023-04-25T02:33:21;11;11;
55276;PMS5003;41136;51.478;-2.610;2023-04-25T02:35:46;13;11;
55276;PMS5003;41136;51.478;-2.610;2023-04-25T02:38:11;15;14;
55276;PMS5003;41136;51.478;-2.610;2023-04-25T02:40:36;17;16;
55276;PMS5003;41136;51.478;-2.610;2023-04-25T02:43:02;19;16;
55276;PMS5003;41136;51.478;-2.610;2023-04-25T02:45:28;13;10;
55276;PMS5003;41136;51.478;-2.610;2023-04-25T02:47:53;10;10;
55276;PMS5003;41136;51.478;-2.610;2023-04-25T02:50:19;12;9;
55276;PMS5003;41136;51.478;-2.610;2023-04-25T02:52:43;15;13;
55276;PMS5003;41136;51.478;-2.610;2023-04-25T02:55:09;14;12;
55276;PMS5003;41136;51.478;-2.610;2023-04-25T02:57:34;15;13;
55276;PMS5003;41136;51.478;-2.610;2023-04-25T02:59:59;14;13;
55276;PMS5003;41136;51.478;-2.610;2023-04-25T03:02:25;13;13;
55276;PMS5003;41136;51.478;-2.610;2023-04-25T03:04:50;13;10;
55276;PMS5003;41136;51.478;-2.610;2023-04-25T03:07:15;13;11;
55276;PMS5003;41136;51.478;-2.610;2023-04-25T03:09:41;9;9;
55276;PMS5003;41136;51.478;-2.610;2023-04-25T03:12:06;11;10;
55276;PMS5003;41136;51.478;-2.610;2023-04-25T03:14:32;12;12;
55276;PMS5003;41136;51.478;-2.610;2023-04-25T03:16:57;14;11;
55276;PMS5003;41136;51.478;-2.610;2023-04-25T03:19:22;14;12;
55276;PMS5003;41136;51.478;-2.610;2023-04-25T03:21:47;10;10;
55276;PMS5003;41136;51.478;-2.610;2023-04-25T03:24:13;8;8;
55276;PMS5003;41136;51.478;-2.610;2023-04-25T03:26:38;9;7;
55276;PMS5003;41136;51.478;-2.610;2023-04-25T03:29:03;9;8;
55276;PMS5003;41136;51.478;-2.610;2023-04-25T03:31:29;8;8;
55276;PMS5003;41136;51.478;-2.610;2023-04-25T03:33:54;6;6;
55276;PMS5003;41136;51.478;-2.610;2023-04-25T03:36:20;8;6;
55276;PMS5003;41136;51.478;-2.610;2023-04-25T03:38:45;7;7;
55276;PMS5003;41136;51.478;-2.610;2023-04-25T03:41:10;9;7;
55276;PMS5003;41136;51.478;-2.610;2023-04-25T03:43:35;6;6;
55276;PMS5003;41136;51.478;-2.610;2023-04-25T03:46:01;7;7;
55276;PMS5003;41136;51.478;-2.610;2023-04-25T03:48:26;11;8;
55276;PMS5003;41136;51.478;-2.610;2023-04-25T03:50:52;6;6;
55276;PMS5003;41136;51.478;-2.610;2023-04-25T03:53:17;7;7;
55276;PMS5003;41136;51.478;-2.610;2023-04-25T03:55:43;12;8;
55276;PMS5003;41136;51.478;-2.610;2023-04-25T03:58:08;5;5;
55276;PMS5003;41136;51.478;-2.610;2023-04-25T04:00:34;8;7;
55276;PMS5003;41136;51.478;-2.610;2023-04-25T04:02:59;12;7;
55276;PMS5003;41136;51.478;-2.610;2023-04-25T04:05:25;6;6;
55276;PMS5003;41136;51.478;-2.610;2023-04-25T04:07:50;10;6;
55276;PMS5003;41136;51.478;-2.610;2023-04-25T04:10:16;8;8;
55276;PMS5003;41136;51.478;-2.610;2023-04-25T04:12:41;6;6;
55276;PMS5003;41136;51.478;-2.610;2023-04-25T04:15:07;10;10;
55276;PMS5003;41136;51.478;-2.610;2023-04-25T04:17:32;8;6;
55276;PMS5003;41136;51.478;-2.610;2023-04-25T04:19:57;9;8;
55276;PMS5003;41136;51.478;-2.610;2023-04-25T04:22:23;7;7;
55276;PMS5003;41136;51.478;-2.610;2023-04-25T04:24:48;7;7;
55276;PMS5003;41136;51.478;-2.610;2023-04-25T04:27:14;11;7;
55276;PMS5003;41136;51.478;-2.610;2023-04-25T04:29:39;9;9;
55276;PMS5003;41136;51.478;-2.610;2023-04-25T04:32:05;8;8;
55276;PMS5003;41136;51.478;-2.610;2023-04-25T04:36:05;10;7;
55276;PMS5003;41136;51.478;-2.610;2023-04-25T04:44:51;11;9;
55276;PMS5003;41136;51.478;-2.610;2023-04-25T04:47:16;8;8;
55276;PMS5003;41136;51.478;-2.610;2023-04-25T04:49:42;13;12;
55276;PMS5003;41136;51.478;-2.610;2023-04-25T04:52:07;13;11;
55276;PMS5003;41136;51.478;-2.610;2023-04-25T04:54:32;13;11;
55276;PMS5003;41136;51.478;-2.610;2023-04-25T04:56:58;16;11;
55276;PMS5003;41136;51.478;-2.610;2023-04-25T04:59:23;12;8;
55276;PMS5003;41136;51.478;-2.610;2023-04-25T05:01:48;12;11;
55276;PMS5003;41136;51.478;-2.610;2023-04-25T05:04:14;10;8;
55276;PMS5003;41136;51.478;-2.610;2023-04-25T05:06:39;12;12;
55276;PMS5003;41136;51.478;-2.610;2023-04-25T05:09:05;8;8;
55276;PMS5003;41136;51.478;-2.610;2023-04-25T05:11:30;14;12;
55276;PMS5003;41136;51.478;-2.610;2023-04-25T05:13:55;12;11;
55276;PMS5003;41136;51.478;-2.610;2023-04-25T05:16:20;8;7;
55276;PMS5003;41136;51.478;-2.610;2023-04-25T05:18:46;11;9;
55276;PMS5003;41136;51.478;-2.610;2023-04-25T05:21:11;15;12;
55276;PMS5003;41136;51.478;-2.610;2023-04-25T05:23:36;14;12;
55276;PMS5003;41136;51.478;-2.610;2023-04-25T05:26:01;14;12;
55276;PMS5003;41136;51.478;-2.610;2023-04-25T05:28:27;14;12;
55276;PMS5003;41136;51.478;-2.610;2023-04-25T05:30:52;14;14;
55276;PMS5003;41136;51.478;-2.610;2023-04-25T05:33:18;15;12;
55276;PMS5003;41136;51.478;-2.610;2023-04-25T05:35:43;14;13;
55276;PMS5003;41136;51.478;-2.610;2023-04-25T05:38:08;16;13;
55276;PMS5003;41136;51.478;-2.610;2023-04-25T05:40:34;13;12;
55276;PMS5003;41136;51.478;-2.610;2023-04-25T05:42:59;13;12;
55276;PMS5003;41136;51.478;-2.610;2023-04-25T05:45:25;14;12;
55276;PMS5003;41136;51.478;-2.610;2023-04-25T05:47:50;15;12;
55276;PMS5003;41136;51.478;-2.610;2023-04-25T05:50:15;15;14;
55276;PMS5003;41136;51.478;-2.610;2023-04-25T05:52:41;16;14;
55276;PMS5003;41136;51.478;-2.610;2023-04-25T05:55:07;16;14;
55276;PMS5003;41136;51.478;-2.610;2023-04-25T05:57:32;14;10;
55276;PMS5003;41136;51.478;-2.610;2023-04-25T05:59:57;11;11;
55276;PMS5003;41136;51.478;-2.610;2023-04-25T06:02:23;16;16;
55276;PMS5003;41136;51.478;-2.610;2023-04-25T06:04:49;9;9;
55276;PMS5003;41136;51.478;-2.610;2023-04-25T06:07:13;14;12;
55276;PMS5003;41136;51.478;-2.610;2023-04-25T06:09:39;15;13;
55276;PMS5003;41136;51.478;-2.610;2023-04-25T06:12:04;10;10;
55276;PMS5003;41136;51.478;-2.610;2023-04-25T06:14:30;13;12;
55276;PMS5003;41136;51.478;-2.610;2023-04-25T06:16:55;17;15;
55276;PMS5003;41136;51.478;-2.610;2023-04-25T06:19:27;21;15;
55276;PMS5003;41136;51.478;-2.610;2023-04-25T06:21:45;17;14;
55276;PMS5003;41136;51.478;-2.610;2023-04-25T06:24:11;16;12;
55276;PMS5003;41136;51.478;-2.610;2023-04-25T06:26:36;14;14;
55276;PMS5003;41136;51.478;-2.610;2023-04-25T06:29:01;16;13;
55276;PMS5003;41136;51.478;-2.610;2023-04-25T06:31:27;19;16;
55276;PMS5003;41136;51.478;-2.610;2023-04-25T06:33:52;15;13;
55276;PMS5003;41136;51.478;-2.610;2023-04-25T06:36:18;16;14;
55276;PMS5003;41136;51.478;-2.610;2023-04-25T06:38:44;17;14;
55276;PMS5003;41136;51.478;-2.610;2023-04-25T06:41:09;14;11;
55276;PMS5003;41136;51.478;-2.610;2023-04-25T06:43:34;11;11;
55276;PMS5003;41136;51.478;-2.610;2023-04-25T06:46:00;13;13;
55276;PMS5003;41136;51.478;-2.610;2023-04-25T06:48:25;15;14;
55276;PMS5003;41136;51.478;-2.610;2023-04-25T06:50:51;15;12;
55276;PMS5003;41136;51.478;-2.610;2023-04-25T06:53:16;11;11;
55276;PMS5003;41136;51.478;-2.610;2023-04-25T06:55:41;12;11;
55276;PMS5003;41136;51.478;-2.610;2023-04-25T06:58:07;14;13;
55276;PMS5003;41136;51.478;-2.610;2023-04-25T07:00:32;9;8;
55276;PMS5003;41136;51.478;-2.610;2023-04-25T07:02:57;10;10;
55276;PMS5003;41136;51.478;-2.610;2023-04-25T07:05:22;13;13;
55276;PMS5003;41136;51.478;-2.610;2023-04-25T07:07:48;8;7;
55276;PMS5003;41136;51.478;-2.610;2023-04-25T07:10:13;14;6;
55276;PMS5003;41136;51.478;-2.610;2023-04-25T07:12:39;6;6;
55276;PMS5003;41136;51.478;-2.610;2023-04-25T07:15:05;9;7;
55276;PMS5003;41136;51.478;-2.610;2023-04-25T07:17:30;11;7;
55276;PMS5003;41136;51.478;-2.610;2023-04-25T07:19:55;9;8;
55276;PMS5003;41136;51.478;-2.610;2023-04-25T07:22:20;7;7;
55276;PMS5003;41136;51.478;-2.610;2023-04-25T07:24:46;7;6;
55276;PMS5003;41136;51.478;-2.610;2023-04-25T07:27:11;6;6;
55276;PMS5003;41136;51.478;-2.610;2023-04-25T07:29:36;7;7;
55276;PMS5003;41136;51.478;-2.610;2023-04-25T07:32:02;8;5;
55276;PMS5003;41136;51.478;-2.610;2023-04-25T07:34:27;6;6;
55276;PMS5003;41136;51.478;-2.610;2023-04-25T07:36:53;7;6;
55276;PMS5003;41136;51.478;-2.610;2023-04-25T07:39:18;6;6;
55276;PMS5003;41136;51.478;-2.610;2023-04-25T07:41:44;7;7;
55276;PMS5003;41136;51.478;-2.610;2023-04-25T07:44:09;4;4;
55276;PMS5003;41136;51.478;-2.610;2023-04-25T07:46:34;5;5;
55276;PMS5003;41136;51.478;-2.610;2023-04-25T07:49:00;4;4;
55276;PMS5003;41136;51.478;-2.610;2023-04-25T07:51:25;5;5;
55276;PMS5003;41136;51.478;-2.610;2023-04-25T07:53:51;5;5;
55276;PMS5003;41136;51.478;-2.610;2023-04-25T07:56:16;7;6;
55276;PMS5003;41136;51.478;-2.610;2023-04-25T07:58:42;5;5;
55276;PMS5003;41136;51.478;-2.610;2023-04-25T08:01:07;4;4;
55276;PMS5003;41136;51.478;-2.610;2023-04-25T08:03:32;6;5;
55276;PMS5003;41136;51.478;-2.610;2023-04-25T08:05:58;9;8;
55276;PMS5003;41136;51.478;-2.610;2023-04-25T08:08:23;10;8;
55276;PMS5003;41136;51.478;-2.610;2023-04-25T08:10:49;6;6;
55276;PMS5003;41136;51.478;-2.610;2023-04-25T08:13:14;6;6;
55276;PMS5003;41136;51.478;-2.610;2023-04-25T08:15:40;5;5;
55276;PMS5003;41136;51.478;-2.610;2023-04-25T08:18:05;9;6;
55276;PMS5003;41136;51.478;-2.610;2023-04-25T08:20:30;8;8;
55276;PMS5003;41136;51.478;-2.610;2023-04-25T08:22:56;7;7;
55276;PMS5003;41136;51.478;-2.610;2023-04-25T08:25:21;4;4;
55276;PMS5003;41136;51.478;-2.610;2023-04-25T08:27:46;6;5;
55276;PMS5003;41136;51.478;-2.610;2023-04-25T08:30:12;4;4;
55276;PMS5003;41136;51.478;-2.610;2023-04-25T08:32:37;6;4;
55276;PMS5003;41136;51.478;-2.610;2023-04-25T08:35:02;3;3;
55276;PMS5003;41136;51.478;-2.610;2023-04-25T08:37:27;3;3;
55276;PMS5003;41136;51.478;-2.610;2023-04-25T08:39:53;3;3;
55276;PMS5003;41136;51.478;-2.610;2023-04-25T08:42:18;6;6;
55276;PMS5003;41136;51.478;-2.610;2023-04-25T08:44:44;4;3;
55276;PMS5003;41136;51.478;-2.610;2023-04-25T08:47:09;3;3;
55276;PMS5003;41136;51.478;-2.610;2023-04-25T08:49:34;2;2;
55276;PMS5003;41136;51.478;-2.610;2023-04-25T08:52:00;3;2;
55276;PMS5003;41136;51.478;-2.610;2023-04-25T08:54:25;5;3;
55276;PMS5003;41136;51.478;-2.610;2023-04-25T08:56:50;5;4;
55276;PMS5003;41136;51.478;-2.610;2023-04-25T08:59:16;4;4;
55276;PMS5003;41136;51.478;-2.610;2023-04-25T09:01:41;3;3;
55276;PMS5003;41136;51.478;-2.610;2023-04-25T09:04:07;3;3;
55276;PMS5003;41136;51.478;-2.610;2023-04-25T09:06:32;4;4;
55276;PMS5003;41136;51.478;-2.610;2023-04-25T09:09:00;2;2;
55276;PMS5003;41136;51.478;-2.610;2023-04-25T09:11:23;4;3;
55276;PMS5003;41136;51.478;-2.610;2023-04-25T09:13:48;2;1;
55276;PMS5003;41136;51.478;-2.610;2023-04-25T09:16:14;3;3;
55276;PMS5003;41136;51.478;-2.610;2023-04-25T09:18:39;5;4;
55276;PMS5003;41136;51.478;-2.610;2023-04-25T09:21:05;5;5;
55276;PMS5003;41136;51.478;-2.610;2023-04-25T09:23:30;2;2;
55276;PMS5003;41136;51.478;-2.610;2023-04-25T09:25:55;1;1;
55276;PMS5003;41136;51.478;-2.610;2023-04-25T09:28:24;3;3;
55276;PMS5003;41136;51.478;-2.610;2023-04-25T09:30:46;3;3;
55276;PMS5003;41136;51.478;-2.610;2023-04-25T09:33:11;4;4;
55276;PMS5003;41136;51.478;-2.610;2023-04-25T09:35:37;2;2;
55276;PMS5003;41136;51.478;-2.610;2023-04-25T09:38:06;3;3;
55276;PMS5003;41136;51.478;-2.610;2023-04-25T09:40:27;3;3;
55276;PMS5003;41136;51.478;-2.610;2023-04-25T09:42:53;4;2;
55276;PMS5003;41136;51.478;-2.610;2023-04-25T09:45:18;3;3;
55276;PMS5003;41136;51.478;-2.610;2023-04-25T09:47:44;2;2;
55276;PMS5003;41136;51.478;-2.610;2023-04-25T09:50:13;4;3;
55276;PMS5003;41136;51.478;-2.610;2023-04-25T09:52:34;2;2;
55276;PMS5003;41136;51.478;-2.610;2023-04-25T09:55:00;5;2;
55276;PMS5003;41136;51.478;-2.610;2023-04-25T09:57:25;3;3;
55276;PMS5003;41136;51.478;-2.610;2023-04-25T09:59:51;1;1;
55276;PMS5003;41136;51.478;-2.610;2023-04-25T10:02:16;5;3;
55276;PMS5003;41136;51.478;-2.610;2023-04-25T10:04:41;2;2;
55276;PMS5003;41136;51.478;-2.610;2023-04-25T10:07:07;5;2;
55276;PMS5003;41136;51.478;-2.610;2023-04-25T10:09:33;3;3;
55276;PMS5003;41136;51.478;-2.610;2023-04-25T10:11:57;4;2;
55276;PMS5003;41136;51.478;-2.610;2023-04-25T10:14:23;4;3;
55276;PMS5003;41136;51.478;-2.610;2023-04-25T10:16:48;2;2;
55276;PMS5003;41136;51.478;-2.610;2023-04-25T10:19:14;4;3;
55276;PMS5003;41136;51.478;-2.610;2023-04-25T10:21:40;1;1;
55276;PMS5003;41136;51.478;-2.610;2023-04-25T10:24:05;3;2;
55276;PMS5003;41136;51.478;-2.610;2023-04-25T10:26:30;1;1;
55276;PMS5003;41136;51.478;-2.610;2023-04-25T10:28:56;2;2;
55276;PMS5003;41136;51.478;-2.610;2023-04-25T10:31:21;5;5;
55276;PMS5003;41136;51.478;-2.610;2023-04-25T10:33:46;1;1;
55276;PMS5003;41136;51.478;-2.610;2023-04-25T10:36:12;4;2;
55276;PMS5003;41136;51.478;-2.610;2023-04-25T10:38:37;2;2;
55276;PMS5003;41136;51.478;-2.610;2023-04-25T10:41:02;2;2;
55276;PMS5003;41136;51.478;-2.610;2023-04-25T10:45:53;3;3;
55276;PMS5003;41136;51.478;-2.610;2023-04-25T10:50:44;2;2;
55276;PMS5003;41136;51.478;-2.610;2023-04-25T10:53:14;3;3;
55276;PMS5003;41136;51.478;-2.610;2023-04-25T10:58:00;5;2;
55276;PMS5003;41136;51.478;-2.610;2023-04-25T11:00:25;2;2;
55276;PMS5003;41136;51.478;-2.610;2023-04-25T11:02:51;6;3;
55276;PMS5003;41136;51.478;-2.610;2023-04-25T11:05:19;3;3;
55276;PMS5003;41136;51.478;-2.610;2023-04-25T11:07:43;3;3;
55276;PMS5003;41136;51.478;-2.610;2023-04-25T11:10:07;2;2;
55276;PMS5003;41136;51.478;-2.610;2023-04-25T11:12:32;2;2;
55276;PMS5003;41136;51.478;-2.610;2023-04-25T11:14:58;2;2;
55276;PMS5003;41136;51.478;-2.610;2023-04-25T11:17:24;2;2;
55276;PMS5003;41136;51.478;-2.610;2023-04-25T11:19:49;2;2;
55276;PMS5003;41136;51.478;-2.610;2023-04-25T11:22:14;2;2;
55276;PMS5003;41136;51.478;-2.610;2023-04-25T11:24:39;6;5;
55276;PMS5003;41136;51.478;-2.610;2023-04-25T11:27:05;2;2;
55276;PMS5003;41136;51.478;-2.610;2023-04-25T11:29:31;1;1;
55276;PMS5003;41136;51.478;-2.610;2023-04-25T11:31:56;2;2;
55276;PMS5003;41136;51.478;-2.610;2023-04-25T11:34:21;3;1;
55276;PMS5003;41136;51.478;-2.610;2023-04-25T11:36:46;2;2;
55276;PMS5003;41136;51.478;-2.610;2023-04-25T11:39:12;3;3;
55276;PMS5003;41136;51.478;-2.610;2023-04-25T11:41:37;2;2;
55276;PMS5003;41136;51.478;-2.610;2023-04-25T11:44:03;2;2;
55276;PMS5003;41136;51.478;-2.610;2023-04-25T11:46:28;2;2;
55276;PMS5003;41136;51.478;-2.610;2023-04-25T11:48:53;3;2;
55276;PMS5003;41136;51.478;-2.610;2023-04-25T11:51:19;3;3;
55276;PMS5003;41136;51.478;-2.610;2023-04-25T11:53:44;3;3;
55276;PMS5003;41136;51.478;-2.610;2023-04-25T11:56:10;2;2;
55276;PMS5003;41136;51.478;-2.610;2023-04-25T12:01:01;3;3;
55276;PMS5003;41136;51.478;-2.610;2023-04-25T12:03:26;2;2;
55276;PMS5003;41136;51.478;-2.610;2023-04-25T12:05:51;1;1;
55276;PMS5003;41136;51.478;-2.610;2023-04-25T12:08:16;3;3;
55276;PMS5003;41136;51.478;-2.610;2023-04-25T12:10:43;4;3;
55276;PMS5003;41136;51.478;-2.610;2023-04-25T12:15:33;3;3;
55276;PMS5003;41136;51.478;-2.610;2023-04-25T12:17:58;2;2;
55276;PMS5003;41136;51.478;-2.610;2023-04-25T12:20:24;2;2;
55276;PMS5003;41136;51.478;-2.610;2023-04-25T12:22:49;3;3;
55276;PMS5003;41136;51.478;-2.610;2023-04-25T12:27:40;3;2;
55276;PMS5003;41136;51.478;-2.610;2023-04-25T12:30:05;2;2;
55276;PMS5003;41136;51.478;-2.610;2023-04-25T12:32:30;1;1;
55276;PMS5003;41136;51.478;-2.610;2023-04-25T12:34:56;3;2;
55276;PMS5003;41136;51.478;-2.610;2023-04-25T12:37:21;4;3;
55276;PMS5003;41136;51.478;-2.610;2023-04-25T12:39:46;3;3;
55276;PMS5003;41136;51.478;-2.610;2023-04-25T12:42:11;3;3;
55276;PMS5003;41136;51.478;-2.610;2023-04-25T12:44:37;3;3;
55276;PMS5003;41136;51.478;-2.610;2023-04-25T12:47:02;2;2;
55276;PMS5003;41136;51.478;-2.610;2023-04-25T12:49:28;3;3;
55276;PMS5003;41136;51.478;-2.610;2023-04-25T12:51:53;1;1;
55276;PMS5003;41136;51.478;-2.610;2023-04-25T12:54:18;2;2;
55276;PMS5003;41136;51.478;-2.610;2023-04-25T12:56:45;3;3;
55276;PMS5003;41136;51.478;-2.610;2023-04-25T12:59:09;2;2;
55276;PMS5003;41136;51.478;-2.610;2023-04-25T13:01:35;5;3;
55276;PMS5003;41136;51.478;-2.610;2023-04-25T13:04:00;7;5;
55276;PMS5003;41136;51.478;-2.610;2023-04-25T13:06:25;4;4;
55276;PMS5003;41136;51.478;-2.610;2023-04-25T13:08:50;2;2;
55276;PMS5003;41136;51.478;-2.610;2023-04-25T13:11:16;3;2;
55276;PMS5003;41136;51.478;-2.610;2023-04-25T13:13:41;4;2;
55276;PMS5003;41136;51.478;-2.610;2023-04-25T13:16:07;5;4;
55276;PMS5003;41136;51.478;-2.610;2023-04-25T13:18:32;2;2;
55276;PMS5003;41136;51.478;-2.610;2023-04-25T13:20:58;2;2;
55276;PMS5003;41136;51.478;-2.610;2023-04-25T13:23:26;3;3;
55276;PMS5003;41136;51.478;-2.610;2023-04-25T13:25:48;3;2;
55276;PMS5003;41136;51.478;-2.610;2023-04-25T13:28:13;2;2;
55276;PMS5003;41136;51.478;-2.610;2023-04-25T13:30:39;2;2;
55276;PMS5003;41136;51.478;-2.610;2023-04-25T13:33:04;3;3;
55276;PMS5003;41136;51.478;-2.610;2023-04-25T13:35:30;1;1;
55276;PMS5003;41136;51.478;-2.610;2023-04-25T13:37:55;2;2;
55276;PMS5003;41136;51.478;-2.610;2023-04-25T13:40:20;4;4;
55276;PMS5003;41136;51.478;-2.610;2023-04-25T13:42:46;3;3;
55276;PMS5003;41136;51.478;-2.610;2023-04-25T13:45:11;5;3;
55276;PMS5003;41136;51.478;-2.610;2023-04-25T13:47:36;4;4;
55276;PMS5003;41136;51.478;-2.610;2023-04-25T13:50:02;3;3;
55276;PMS5003;41136;51.478;-2.610;2023-04-25T13:52:27;2;2;
55276;PMS5003;41136;51.478;-2.610;2023-04-25T13:54:53;3;3;
55276;PMS5003;41136;51.478;-2.610;2023-04-25T13:57:18;3;3;
55276;PMS5003;41136;51.478;-2.610;2023-04-25T13:59:43;4;4;
55276;PMS5003;41136;51.478;-2.610;2023-04-25T14:02:09;2;2;
55276;PMS5003;41136;51.478;-2.610;2023-04-25T14:04:34;3;3;
55276;PMS5003;41136;51.478;-2.610;2023-04-25T14:06:59;4;4;
55276;PMS5003;41136;51.478;-2.610;2023-04-25T14:09:25;2;2;
55276;PMS5003;41136;51.478;-2.610;2023-04-25T14:11:50;2;2;
55276;PMS5003;41136;51.478;-2.610;2023-04-25T14:14:16;3;3;
55276;PMS5003;41136;51.478;-2.610;2023-04-25T14:16:41;3;3;
55276;PMS5003;41136;51.478;-2.610;2023-04-25T14:19:06;3;3;
55276;PMS5003;41136;51.478;-2.610;2023-04-25T14:21:32;4;4;
55276;PMS5003;41136;51.478;-2.610;2023-04-25T14:23:57;3;3;
55276;PMS5003;41136;51.478;-2.610;2023-04-25T14:26:22;5;2;
55276;PMS5003;41136;51.478;-2.610;2023-04-25T14:28:48;4;3;
55276;PMS5003;41136;51.478;-2.610;2023-04-25T14:31:13;4;4;
55276;PMS5003;41136;51.478;-2.610;2023-04-25T14:33:39;3;3;
55276;PMS5003;41136;51.478;-2.610;2023-04-25T14:36:04;3;2;
55276;PMS5003;41136;51.478;-2.610;2023-04-25T14:38:29;5;4;
55276;PMS5003;41136;51.478;-2.610;2023-04-25T14:40:55;2;2;
55276;PMS5003;41136;51.478;-2.610;2023-04-25T14:43:20;4;4;
55276;PMS5003;41136;51.478;-2.610;2023-04-25T14:45:45;4;4;
55276;PMS5003;41136;51.478;-2.610;2023-04-25T14:48:11;3;2;
55276;PMS5003;41136;51.478;-2.610;2023-04-25T14:50:36;4;3;
55276;PMS5003;41136;51.478;-2.610;2023-04-25T14:53:02;3;3;
55276;PMS5003;41136;51.478;-2.610;2023-04-25T14:55:27;8;4;
55276;PMS5003;41136;51.478;-2.610;2023-04-25T14:57:52;4;3;
55276;PMS5003;41136;51.478;-2.610;2023-04-25T15:00:18;3;3;
55276;PMS5003;41136;51.478;-2.610;2023-04-25T15:02:43;3;3;
55276;PMS5003;41136;51.478;-2.610;2023-04-25T15:05:09;4;3;
55276;PMS5003;41136;51.478;-2.610;2023-04-25T15:07:34;3;3;
55276;PMS5003;41136;51.478;-2.610;2023-04-25T15:10:00;3;3;
55276;PMS5003;41136;51.478;-2.610;2023-04-25T15:12:25;3;3;
55276;PMS5003;41136;51.478;-2.610;2023-04-25T15:14:50;5;4;
55276;PMS5003;41136;51.478;-2.610;2023-04-25T15:17:15;2;2;
55276;PMS5003;41136;51.478;-2.610;2023-04-25T15:19:41;4;3;
55276;PMS5003;41136;51.478;-2.610;2023-04-25T15:22:06;5;3;
55276;PMS5003;41136;51.478;-2.610;2023-04-25T15:24:31;3;3;
55276;PMS5003;41136;51.478;-2.610;2023-04-25T15:26:56;3;3;
55276;PMS5003;41136;51.478;-2.610;2023-04-25T15:29:22;3;3;
55276;PMS5003;41136;51.478;-2.610;2023-04-25T15:31:47;3;3;
55276;PMS5003;41136;51.478;-2.610;2023-04-25T15:34:13;3;3;
55276;PMS5003;41136;51.478;-2.610;2023-04-25T15:36:38;4;4;
55276;PMS5003;41136;51.478;-2.610;2023-04-25T15:39:03;5;3;
55276;PMS5003;41136;51.478;-2.610;2023-04-25T15:41:29;5;5;
55276;PMS5003;41136;51.478;-2.610;2023-04-25T15:43:54;4;4;
55276;PMS5003;41136;51.478;-2.610;2023-04-25T15:46:20;6;4;
55276;PMS5003;41136;51.478;-2.610;2023-04-25T15:48:45;3;3;
55276;PMS5003;41136;51.478;-2.610;2023-04-25T15:51:10;2;2;
55276;PMS5003;41136;51.478;-2.610;2023-04-25T15:53:36;3;3;
55276;PMS5003;41136;51.478;-2.610;2023-04-25T15:56:01;3;3;
55276;PMS5003;41136;51.478;-2.610;2023-04-25T15:58:26;4;4;
55276;PMS5003;41136;51.478;-2.610;2023-04-25T16:00:52;7;5;
55276;PMS5003;41136;51.478;-2.610;2023-04-25T16:03:17;3;3;
55276;PMS5003;41136;51.478;-2.610;2023-04-25T16:07:37;4;4;
55276;PMS5003;41136;51.478;-2.610;2023-04-25T16:10:02;4;4;
55276;PMS5003;41136;51.478;-2.610;2023-04-25T16:12:28;5;5;
55276;PMS5003;41136;51.478;-2.610;2023-04-25T16:14:53;3;3;
55276;PMS5003;41136;51.478;-2.610;2023-04-25T16:17:18;3;3;
55276;PMS5003;41136;51.478;-2.610;2023-04-25T16:19:44;3;3;
55276;PMS5003;41136;51.478;-2.610;2023-04-25T16:22:09;3;3;
55276;PMS5003;41136;51.478;-2.610;2023-04-25T16:24:34;4;4;
55276;PMS5003;41136;51.478;-2.610;2023-04-25T16:27:00;8;6;
55276;PMS5003;41136;51.478;-2.610;2023-04-25T16:29:25;4;4;
55276;PMS5003;41136;51.478;-2.610;2023-04-25T16:31:51;5;4;
55276;PMS5003;41136;51.478;-2.610;2023-04-25T16:34:16;5;5;
55276;PMS5003;41136;51.478;-2.610;2023-04-25T16:36:41;5;5;
55276;PMS5003;41136;51.478;-2.610;2023-04-25T16:39:07;4;4;